Time;durP1;ratioP1;P1;durP2;ratioP2;P2;SDS_P1;SDS_P2;PMS_P1;PMS_P2;Temp;Humidity;BMP_temperature;BMP_pressure;BME280_temperature;BME280_humidity;BME280_pressure;Samples;Min_cycle;Max_cycle;Signal;HPM_P1;HPM_P2
2024/01/13 00:01:01;;;;;;;0.20;0.20;;;;;;;;;;5031142;28;20040;-65
2024/01/13 00:03:26;;;;;;;0.33;0.33;;;;;;;;;;5029850;28;20079;-65
2024/01/13 00:05:51;;;;;;;0.30;0.30;;;;;;;;;;5030462;28;20087;-65
2024/01/13 00:08:16;;;;;;;0.37;0.37;;;;;;;;;;5028705;28;20048;-65
2024/01/13 00:10:42;;;;;;;0.20;0.20;;;;;;;;;;5031328;28;20021;-65
2024/01/13 00:13:08;;;;;;;1.13;1.03;;;;;;;;;;5030723;28;20018;-65
2024/01/13 00:15:33;;;;;;;0.73;0.60;;;;;;;;;;5030084;28;20025;-64
2024/01/13 00:17:59;;;;;;;0.57;0.57;;;;;;;;;;5030973;28;20025;-65
2024/01/13 00:20:24;;;;;;;0.40;0.40;;;;;;;;;;5031186;28;20409;-65
2024/01/13 00:22:49;;;;;;;0.43;0.43;;;;;;;;;;5031647;28;20354;-65
2024/01/13 00:25:17;;;;;;;0.40;0.40;;;;;;;;;;5030798;28;20029;-65
2024/01/13 00:27:42;;;;;;;0.20;0.20;;;;;;;;;;5030372;28;20022;-65
2024/01/13 00:30:08;;;;;;;0.20;0.20;;;;;;;;;;5031285;28;20477;-66
2024/01/13 00:32:33;;;;;;;0.30;0.30;;;;;;;;;;5030187;28;20025;-64
2024/01/13 00:34:58;;;;;;;0.50;0.50;;;;;;;;;;5030755;28;20025;-64
2024/01/13 00:37:24;;;;;;;0.30;0.30;;;;;;;;;;5030938;28;20063;-65
2024/01/13 00:39:49;;;;;;;0.60;0.60;;;;;;;;;;5030663;28;20430;-65
2024/01/13 00:42:14;;;;;;;0.30;0.30;;;;;;;;;;5030375;28;20025;-64
2024/01/13 00:44:39;;;;;;;3.70;1.47;;;;;;;;;;5029932;28;20017;-65
2024/01/13 00:47:05;;;;;;;0.33;0.33;;;;;;;;;;5029151;28;20068;-64
2024/01/13 00:49:30;;;;;;;0.97;0.97;;;;;;;;;;5030017;28;20025;-64
2024/01/13 00:51:55;;;;;;;0.40;0.40;;;;;;;;;;5030631;28;20022;-65
2024/01/13 00:54:21;;;;;;;0.50;0.50;;;;;;;;;;5030990;28;20029;-65
2024/01/13 00:56:46;;;;;;;0.83;0.83;;;;;;;;;;5030649;28;20098;-65
2024/01/13 00:59:11;;;;;;;0.77;0.77;;;;;;;;;;5006264;28;20496;-65
2024/01/13 01:01:37;;;;;;;0.47;0.33;;;;;;;;;;5031348;28;20018;-65
2024/01/13 01:04:02;;;;;;;1.80;0.87;;;;;;;;;;5030017;28;21389;-64
2024/01/13 01:06:27;;;;;;;1.80;1.70;;;;;;;;;;5028836;28;20021;-66
2024/01/13 01:08:53;;;;;;;0.20;0.20;;;;;;;;;;5030144;28;20040;-65
2024/01/13 01:11:18;;;;;;;0.50;0.50;;;;;;;;;;5030367;28;20037;-65
2024/01/13 01:13:43;;;;;;;0.20;0.20;;;;;;;;;;5030085;28;20032;-64
2024/01/13 01:16:09;;;;;;;0.20;0.20;;;;;;;;;;5028853;28;20486;-64
2024/01/13 01:18:34;;;;;;;0.20;0.20;;;;;;;;;;5030291;28;20055;-64
2024/01/13 01:21:00;;;;;;;0.60;0.60;;;;;;;;;;5029858;28;20124;-65
2024/01/13 01:23:25;;;;;;;0.40;0.40;;;;;;;;;;5029761;28;20147;-65
2024/01/13 01:25:50;;;;;;;0.67;0.67;;;;;;;;;;5029976;28;20262;-65
2024/01/13 01:28:15;;;;;;;2.37;0.90;;;;;;;;;;5029780;28;20018;-64
2024/01/13 01:30:41;;;;;;;0.30;0.30;;;;;;;;;;5030121;28;20034;-65
2024/01/13 01:33:06;;;;;;;0.50;0.50;;;;;;;;;;5029468;28;20066;-65
2024/01/13 01:35:31;;;;;;;0.93;0.73;;;;;;;;;;5029861;28;20022;-64
2024/01/13 01:37:57;;;;;;;0.67;0.40;;;;;;;;;;5030403;28;20158;-65
2024/01/13 01:40:24;;;;;;;5.17;1.07;;;;;;;;;;5029837;28;20025;-65
2024/01/13 01:42:49;;;;;;;0.20;0.20;;;;;;;;;;5029674;28;20067;-65
2024/01/13 01:45:14;;;;;;;0.20;0.20;;;;;;;;;;5029774;28;20061;-65
2024/01/13 01:47:41;;;;;;;0.23;0.23;;;;;;;;;;5030102;28;20021;-65
2024/01/13 01:50:06;;;;;;;0.20;0.20;;;;;;;;;;5030310;28;20424;-64
2024/01/13 01:52:32;;;;;;;2.23;1.10;;;;;;;;;;5029771;28;20021;-64
2024/01/13 01:54:57;;;;;;;0.20;0.20;;;;;;;;;;5032442;28;20027;-65
2024/01/13 01:57:22;;;;;;;0.43;0.43;;;;;;;;;;5033252;28;20366;-65
2024/01/13 01:59:48;;;;;;;0.93;0.53;;;;;;;;;;5033436;28;20017;-65
2024/01/13 02:02:14;;;;;;;0.30;0.30;;;;;;;;;;5031455;28;20025;-64
2024/01/13 02:04:39;;;;;;;0.40;0.40;;;;;;;;;;5033669;28;20021;-65
2024/01/13 02:07:05;;;;;;;0.40;0.40;;;;;;;;;;5033283;28;20029;-64
2024/01/13 02:09:30;;;;;;;0.20;0.20;;;;;;;;;;5033347;28;22368;-64
2024/01/13 02:11:55;;;;;;;0.40;0.30;;;;;;;;;;5033390;28;20032;-65
2024/01/13 02:14:21;;;;;;;0.60;0.53;;;;;;;;;;5029925;28;20021;-69
2024/01/13 02:16:46;;;;;;;0.30;0.30;;;;;;;;;;5033627;28;20026;-70
2024/01/13 02:19:12;;;;;;;0.30;0.30;;;;;;;;;;5033643;28;20179;-70
2024/01/13 02:21:38;;;;;;;0.40;0.40;;;;;;;;;;5033284;28;20017;-70
2024/01/13 02:24:03;;;;;;;0.30;0.30;;;;;;;;;;5033374;28;20026;-69
2024/01/13 02:26:33;;;;;;;0.20;0.20;;;;;;;;;;5033630;28;20064;-68
2024/01/13 02:28:58;;;;;;;0.70;0.70;;;;;;;;;;5033050;28;20013;-68
2024/01/13 02:31:23;;;;;;;0.20;0.20;;;;;;;;;;5032912;28;20028;-69
2024/01/13 02:33:52;;;;;;;0.57;0.57;;;;;;;;;;5033312;28;20112;-69
2024/01/13 02:36:17;;;;;;;0.27;0.27;;;;;;;;;;5032870;28;20030;-68
2024/01/13 02:38:43;;;;;;;1.03;0.57;;;;;;;;;;5033693;28;20453;-69
2024/01/13 02:41:08;;;;;;;1.03;0.90;;;;;;;;;;5033306;28;20047;-69
2024/01/13 02:43:34;;;;;;;0.40;0.40;;;;;;;;;;5032058;28;20031;-68
2024/01/13 02:45:59;;;;;;;0.20;0.20;;;;;;;;;;5033104;28;20035;-68
2024/01/13 02:48:25;;;;;;;0.40;0.40;;;;;;;;;;5031890;28;20432;-69
2024/01/13 02:50:54;;;;;;;0.20;0.20;;;;;;;;;;5033056;28;20045;-69
2024/01/13 02:53:20;;;;;;;0.20;0.20;;;;;;;;;;5033026;28;20025;-69
2024/01/13 02:55:45;;;;;;;1.40;1.30;;;;;;;;;;5032816;28;20436;-69
2024/01/13 02:58:10;;;;;;;0.50;0.50;;;;;;;;;;5032749;28;20083;-69
2024/01/13 03:00:35;;;;;;;0.20;0.20;;;;;;;;;;5032723;28;20032;-69
2024/01/13 03:03:01;;;;;;;0.43;0.43;;;;;;;;;;5032935;28;20058;-69
2024/01/13 03:05:26;;;;;;;0.40;0.40;;;;;;;;;;5031523;28;20033;-69
2024/01/13 03:07:51;;;;;;;0.20;0.20;;;;;;;;;;5032822;28;20041;-69
2024/01/13 03:10:17;;;;;;;0.53;0.53;;;;;;;;;;5031789;28;20359;-69
2024/01/13 03:12:42;;;;;;;0.20;0.20;;;;;;;;;;5032327;28;20025;-69
2024/01/13 03:15:09;;;;;;;0.20;0.20;;;;;;;;;;5031268;28;20022;-69
2024/01/13 03:17:35;;;;;;;0.30;0.30;;;;;;;;;;5032368;28;20032;-69
2024/01/13 03:20:01;;;;;;;0.20;0.20;;;;;;;;;;5032374;28;20045;-69
2024/01/13 03:22:26;;;;;;;0.53;0.53;;;;;;;;;;5031354;28;20397;-68
2024/01/13 03:24:51;;;;;;;0.40;0.40;;;;;;;;;;5032207;28;20044;-64
2024/01/13 03:27:17;;;;;;;0.20;0.20;;;;;;;;;;5032443;28;20056;-63
2024/01/13 03:29:42;;;;;;;0.20;0.20;;;;;;;;;;5030779;28;20056;-64
2024/01/13 03:32:07;;;;;;;0.20;0.20;;;;;;;;;;5031114;28;20017;-64
2024/01/13 03:34:32;;;;;;;0.67;0.63;;;;;;;;;;5029127;28;20048;-64
2024/01/13 03:36:58;;;;;;;1.70;1.30;;;;;;;;;;5031667;28;20385;-64
2024/01/13 03:39:23;;;;;;;0.30;0.30;;;;;;;;;;5030467;28;20048;-64
2024/01/13 03:41:49;;;;;;;0.43;0.43;;;;;;;;;;5031379;28;20033;-64
2024/01/13 03:44:14;;;;;;;0.40;0.40;;;;;;;;;;5031548;28;20056;-63
2024/01/13 03:46:39;;;;;;;0.37;0.37;;;;;;;;;;5031982;28;20041;-64
2024/01/13 03:49:05;;;;;;;0.20;0.20;;;;;;;;;;5032053;28;20020;-64
2024/01/13 03:51:30;;;;;;;0.57;0.50;;;;;;;;;;5032076;28;20143;-64
2024/01/13 03:53:55;;;;;;;0.30;0.30;;;;;;;;;;5031766;28;20489;-64
2024/01/13 03:56:21;;;;;;;0.20;0.20;;;;;;;;;;5031066;28;20048;-65
2024/01/13 03:58:46;;;;;;;2.53;1.40;;;;;;;;;;5031654;28;20033;-62
2024/01/13 04:01:11;;;;;;;0.33;0.30;;;;;;;;;;5030954;28;20166;-63
2024/01/13 04:03:37;;;;;;;0.30;0.30;;;;;;;;;;5029518;28;20048;-63
2024/01/13 04:06:02;;;;;;;2.30;0.50;;;;;;;;;;5031906;28;20009;-64
2024/01/13 04:08:28;;;;;;;0.37;0.37;;;;;;;;;;5030582;28;20025;-63
2024/01/13 04:10:53;;;;;;;0.20;0.20;;;;;;;;;;5031381;28;20029;-64
2024/01/13 04:13:18;;;;;;;0.20;0.20;;;;;;;;;;5030744;28;20013;-63
2024/01/13 04:15:43;;;;;;;0.30;0.30;;;;;;;;;;5031658;28;20116;-65
2024/01/13 04:18:09;;;;;;;0.30;0.30;;;;;;;;;;5030227;28;20099;-63
2024/01/13 04:20:34;;;;;;;0.30;0.30;;;;;;;;;;5030792;28;20600;-63
2024/01/13 04:23:00;;;;;;;0.20;0.20;;;;;;;;;;5031013;28;20021;-63
2024/01/13 04:25:25;;;;;;;0.50;0.50;;;;;;;;;;5031228;28;20040;-64
2024/01/13 04:27:52;;;;;;;0.30;0.30;;;;;;;;;;5033387;28;20441;-63
2024/01/13 04:30:18;;;;;;;0.20;0.20;;;;;;;;;;5028187;28;20490;-63
2024/01/13 04:32:43;;;;;;;0.37;0.37;;;;;;;;;;5030507;28;20064;-64
2024/01/13 04:35:09;;;;;;;0.20;0.20;;;;;;;;;;5030044;28;20359;-68
2024/01/13 04:37:34;;;;;;;0.50;0.50;;;;;;;;;;5030744;28;20017;-68
2024/01/13 04:39:59;;;;;;;0.27;0.27;;;;;;;;;;5030683;28;20037;-68
2024/01/13 04:42:25;;;;;;;0.20;0.20;;;;;;;;;;5029983;28;20017;-68
2024/01/13 04:44:50;;;;;;;0.30;0.30;;;;;;;;;;5031292;28;20022;-68
2024/01/13 04:47:16;;;;;;;0.20;0.20;;;;;;;;;;5029057;28;20820;-69
2024/01/13 04:49:41;;;;;;;0.57;0.57;;;;;;;;;;5031103;28;20150;-68
2024/01/13 04:52:07;;;;;;;0.30;0.30;;;;;;;;;;5030855;28;20147;-69
2024/01/13 04:54:32;;;;;;;0.30;0.30;;;;;;;;;;5030590;28;20092;-69
2024/01/13 04:56:59;;;;;;;0.30;0.30;;;;;;;;;;5030650;28;20175;-69
2024/01/13 04:59:24;;;;;;;0.50;0.50;;;;;;;;;;5030730;28;20469;-69
2024/01/13 05:01:49;;;;;;;0.23;0.23;;;;;;;;;;5030862;28;20156;-68
2024/01/13 05:04:15;;;;;;;0.20;0.20;;;;;;;;;;5029877;28;20034;-68
2024/01/13 05:06:40;;;;;;;0.20;0.20;;;;;;;;;;5030294;28;20036;-69
2024/01/13 05:09:05;;;;;;;2.07;0.53;;;;;;;;;;5030667;28;20033;-68
2024/01/13 05:11:30;;;;;;;0.20;0.20;;;;;;;;;;5029804;28;20118;-70
2024/01/13 05:13:56;;;;;;;0.20;0.20;;;;;;;;;;5029895;28;20378;-69
2024/01/13 05:16:21;;;;;;;0.20;0.20;;;;;;;;;;5030073;28;20025;-68
2024/01/13 05:18:46;;;;;;;0.30;0.30;;;;;;;;;;5030333;28;20060;-69
2024/01/13 05:21:11;;;;;;;0.20;0.20;;;;;;;;;;5029035;28;20482;-68
2024/01/13 05:23:37;;;;;;;0.20;0.20;;;;;;;;;;5030634;28;20367;-69
2024/01/13 05:26:02;;;;;;;0.83;0.83;;;;;;;;;;5030134;28;20111;-69
2024/01/13 05:28:28;;;;;;;0.20;0.20;;;;;;;;;;5029347;28;20018;-70
2024/01/13 05:30:53;;;;;;;0.20;0.20;;;;;;;;;;5028699;28;20021;-68
2024/01/13 05:33:18;;;;;;;0.20;0.20;;;;;;;;;;5030216;28;20025;-69
2024/01/13 05:35:44;;;;;;;0.20;0.20;;;;;;;;;;5030005;28;20022;-69
2024/01/13 05:38:09;;;;;;;0.40;0.40;;;;;;;;;;5029041;28;20413;-69
2024/01/13 05:40:34;;;;;;;0.40;0.40;;;;;;;;;;5029999;28;20029;-69
2024/01/13 05:43:00;;;;;;;0.20;0.20;;;;;;;;;;5029292;28;20055;-63
2024/01/13 05:45:25;;;;;;;0.20;0.20;;;;;;;;;;5029850;28;20029;-63
2024/01/13 05:47:51;;;;;;;0.50;0.50;;;;;;;;;;5029910;28;20029;-64
2024/01/13 05:50:16;;;;;;;0.20;0.20;;;;;;;;;;5030128;28;20105;-64
2024/01/13 05:52:41;;;;;;;0.30;0.30;;;;;;;;;;5030019;28;20017;-64
2024/01/13 05:55:07;;;;;;;0.20;0.20;;;;;;;;;;5029293;28;20418;-64
2024/01/13 05:57:32;;;;;;;0.63;0.63;;;;;;;;;;5029070;28;20045;-63
2024/01/13 05:59:57;;;;;;;0.20;0.20;;;;;;;;;;5028396;28;20024;-64
2024/01/13 06:02:23;;;;;;;0.77;0.70;;;;;;;;;;5029407;28;20504;-63
2024/01/13 06:04:48;;;;;;;0.30;0.30;;;;;;;;;;5029764;28;20390;-63
2024/01/13 06:07:14;;;;;;;0.20;0.20;;;;;;;;;;5029891;28;20029;-64
2024/01/13 06:09:39;;;;;;;0.20;0.20;;;;;;;;;;5029090;28;20089;-64
2024/01/13 06:12:05;;;;;;;0.50;0.50;;;;;;;;;;5028883;28;20028;-64
2024/01/13 06:14:30;;;;;;;0.20;0.20;;;;;;;;;;5028649;28;20292;-64
2024/01/13 06:16:56;;;;;;;0.30;0.30;;;;;;;;;;5029762;28;20100;-63
2024/01/13 06:19:21;;;;;;;0.20;0.20;;;;;;;;;;5029367;28;20053;-63
2024/01/13 06:21:46;;;;;;;0.33;0.33;;;;;;;;;;5029420;28;20025;-65
2024/01/13 06:24:12;;;;;;;0.60;0.60;;;;;;;;;;5028883;28;20033;-64
2024/01/13 06:26:40;;;;;;;0.27;0.27;;;;;;;;;;5028727;28;20025;-63
2024/01/13 06:29:06;;;;;;;0.43;0.43;;;;;;;;;;5029177;28;20501;-63
2024/01/13 06:31:31;;;;;;;0.30;0.30;;;;;;;;;;5029567;28;20017;-63
2024/01/13 06:33:57;;;;;;;0.20;0.20;;;;;;;;;;5029647;28;20021;-64
2024/01/13 06:36:22;;;;;;;0.20;0.20;;;;;;;;;;5029579;28;20051;-64
2024/01/13 06:38:48;;;;;;;0.20;0.20;;;;;;;;;;5025712;28;20032;-64
2024/01/13 06:41:13;;;;;;;0.20;0.20;;;;;;;;;;5031634;28;20063;-65
2024/01/13 06:43:38;;;;;;;0.30;0.30;;;;;;;;;;5031146;28;20223;-64
2024/01/13 06:46:05;;;;;;;0.30;0.30;;;;;;;;;;5032433;28;20026;-63
2024/01/13 06:48:31;;;;;;;0.57;0.40;;;;;;;;;;5032783;28;20020;-63
2024/01/13 06:50:56;;;;;;;0.20;0.20;;;;;;;;;;5030159;28;20393;-63
2024/01/13 06:53:21;;;;;;;0.40;0.40;;;;;;;;;;5032532;28;20033;-69
2024/01/13 06:55:47;;;;;;;0.20;0.20;;;;;;;;;;5032705;28;20025;-69
2024/01/13 06:58:12;;;;;;;1.77;0.67;;;;;;;;;;5031319;28;20032;-69
2024/01/13 07:00:39;;;;;;;1.40;0.77;;;;;;;;;;5032704;28;20033;-69
2024/01/13 07:03:04;;;;;;;0.77;0.77;;;;;;;;;;5032638;28;20112;-69
2024/01/13 07:05:29;;;;;;;0.40;0.40;;;;;;;;;;5032695;28;20104;-69
2024/01/13 07:07:55;;;;;;;0.20;0.20;;;;;;;;;;5031609;28;20013;-70
2024/01/13 07:10:20;;;;;;;0.47;0.43;;;;;;;;;;5032126;28;20022;-69
2024/01/13 07:12:46;;;;;;;0.20;0.20;;;;;;;;;;5032420;28;20021;-69
2024/01/13 07:15:11;;;;;;;0.70;0.70;;;;;;;;;;5031465;28;20024;-69
2024/01/13 07:17:36;;;;;;;0.20;0.20;;;;;;;;;;5032094;28;20148;-69
2024/01/13 07:20:03;;;;;;;0.67;0.67;;;;;;;;;;5031896;28;20060;-68
2024/01/13 07:22:29;;;;;;;0.30;0.30;;;;;;;;;;5030488;28;20021;-69
2024/01/13 07:24:55;;;;;;;0.20;0.20;;;;;;;;;;5031936;28;20022;-69
2024/01/13 07:27:20;;;;;;;0.47;0.47;;;;;;;;;;5032098;28;20033;-68
2024/01/13 07:29:46;;;;;;;0.20;0.20;;;;;;;;;;5032403;28;20029;-68
2024/01/13 07:32:13;;;;;;;0.50;0.50;;;;;;;;;;5031256;28;20013;-68
2024/01/13 07:34:38;;;;;;;0.43;0.43;;;;;;;;;;5031442;28;20010;-68
2024/01/13 07:37:03;;;;;;;0.20;0.20;;;;;;;;;;5029512;28;20362;-68
2024/01/13 07:39:28;;;;;;;0.40;0.40;;;;;;;;;;5031324;28;20116;-69
2024/01/13 07:41:53;;;;;;;0.20;0.20;;;;;;;;;;5031879;28;20018;-69
2024/01/13 07:44:19;;;;;;;0.27;0.27;;;;;;;;;;5031415;28;20025;-68
2024/01/13 07:46:44;;;;;;;0.20;0.20;;;;;;;;;;5031423;28;20020;-68
2024/01/13 07:49:09;;;;;;;0.20;0.20;;;;;;;;;;5031497;28;20112;-68
2024/01/13 07:51:35;;;;;;;0.20;0.20;;;;;;;;;;5030934;28;20023;-68
2024/01/13 07:54:00;;;;;;;0.37;0.37;;;;;;;;;;5030980;28;20021;-68
2024/01/13 07:56:25;;;;;;;0.20;0.20;;;;;;;;;;5031986;28;20017;-69
2024/01/13 07:58:51;;;;;;;0.30;0.30;;;;;;;;;;5030886;28;20053;-68
2024/01/13 08:01:18;;;;;;;0.40;0.40;;;;;;;;;;5030260;28;20096;-68
2024/01/13 08:03:43;;;;;;;0.20;0.20;;;;;;;;;;5031989;28;20030;-63
2024/01/13 08:06:09;;;;;;;0.40;0.40;;;;;;;;;;5030320;28;20493;-63
2024/01/13 08:08:34;;;;;;;0.23;0.23;;;;;;;;;;5030067;28;20370;-64
2024/01/13 08:10:59;;;;;;;0.60;0.60;;;;;;;;;;5028349;28;20105;-64
2024/01/13 08:13:24;;;;;;;1.03;0.93;;;;;;;;;;5031441;28;20017;-63
2024/01/13 08:15:50;;;;;;;0.20;0.20;;;;;;;;;;5029728;28;20079;-64
2024/01/13 08:18:15;;;;;;;0.30;0.30;;;;;;;;;;5029233;28;20032;-63
2024/01/13 08:20:40;;;;;;;0.63;0.63;;;;;;;;;;5030647;28;20049;-63
2024/01/13 08:23:05;;;;;;;0.40;0.40;;;;;;;;;;5030323;28;20064;-63
2024/01/13 08:25:31;;;;;;;0.20;0.20;;;;;;;;;;5030842;28;20030;-63
2024/01/13 08:27:56;;;;;;;0.20;0.20;;;;;;;;;;5029669;28;20017;-62
2024/01/13 08:30:21;;;;;;;0.50;0.50;;;;;;;;;;5030474;28;20378;-63
2024/01/13 08:32:46;;;;;;;0.20;0.20;;;;;;;;;;5030487;28;20029;-62
2024/01/13 08:35:12;;;;;;;0.23;0.23;;;;;;;;;;5030966;28;20049;-64
2024/01/13 08:37:37;;;;;;;0.30;0.30;;;;;;;;;;5030957;28;20009;-63
2024/01/13 08:40:04;;;;;;;0.20;0.20;;;;;;;;;;5030600;28;20028;-63
2024/01/13 08:42:30;;;;;;;0.30;0.30;;;;;;;;;;5030380;28;20501;-64
2024/01/13 08:44:55;;;;;;;0.60;0.60;;;;;;;;;;5030322;28;20018;-63
2024/01/13 08:47:21;;;;;;;0.77;0.63;;;;;;;;;;5029703;28;20026;-64
2024/01/13 08:49:46;;;;;;;0.20;0.20;;;;;;;;;;5030464;28;20017;-64
2024/01/13 08:52:11;;;;;;;0.30;0.30;;;;;;;;;;5030263;28;20021;-63
2024/01/13 08:54:37;;;;;;;0.87;0.87;;;;;;;;;;5030068;28;20451;-64
2024/01/13 08:57:05;;;;;;;0.97;0.87;;;;;;;;;;5030064;28;20014;-63
2024/01/13 08:59:33;;;;;;;0.23;0.23;;;;;;;;;;5028060;28;20029;-64
2024/01/13 09:01:58;;;;;;;0.20;0.20;;;;;;;;;;5012095;28;20021;-63
2024/01/13 09:04:23;;;;;;;0.33;0.33;;;;;;;;;;5030492;28;20013;-63
2024/01/13 09:06:49;;;;;;;0.77;0.53;;;;;;;;;;5026726;28;20091;-63
2024/01/13 09:09:14;;;;;;;0.20;0.20;;;;;;;;;;5029299;28;20108;-64
2024/01/13 09:11:41;;;;;;;0.30;0.30;;;;;;;;;;5030305;28;20029;-64
2024/01/13 09:14:07;;;;;;;0.30;0.30;;;;;;;;;;5030322;28;20096;-68
2024/01/13 09:16:32;;;;;;;1.30;1.13;;;;;;;;;;5029931;28;20101;-69
2024/01/13 09:18:57;;;;;;;0.40;0.40;;;;;;;;;;5028737;28;20432;-68
2024/01/13 09:21:23;;;;;;;0.33;0.33;;;;;;;;;;5030048;28;20018;-68
2024/01/13 09:23:48;;;;;;;0.30;0.30;;;;;;;;;;5030113;28;20481;-67
2024/01/13 09:26:14;;;;;;;0.20;0.20;;;;;;;;;;5029791;28;20532;-68
2024/01/13 09:28:39;;;;;;;0.20;0.20;;;;;;;;;;5029980;28;20100;-68
2024/01/13 09:31:04;;;;;;;0.20;0.20;;;;;;;;;;5029370;28;20018;-68
2024/01/13 09:33:30;;;;;;;0.20;0.20;;;;;;;;;;5029847;28;20017;-68
2024/01/13 09:35:55;;;;;;;0.30;0.30;;;;;;;;;;5029525;28;20160;-68
2024/01/13 09:38:21;;;;;;;0.30;0.30;;;;;;;;;;5029421;28;20466;-68
2024/01/13 09:40:46;;;;;;;0.50;0.50;;;;;;;;;;5028423;28;20042;-68
2024/01/13 09:43:34;;;;;;;0.30;0.30;;;;;;;;;;5029945;28;20021;-68
2024/01/13 09:46:00;;;;;;;0.23;0.23;;;;;;;;;;5026351;28;20037;-68
2024/01/13 09:48:26;;;;;;;0.60;0.60;;;;;;;;;;5029841;28;20492;-67
2024/01/13 09:50:52;;;;;;;0.37;0.27;;;;;;;;;;5029811;28;20022;-68
2024/01/13 09:53:26;;;;;;;0.50;0.50;;;;;;;;;;5027710;28;20108;-68
2024/01/13 09:55:54;;;;;;;0.23;0.23;;;;;;;;;;5028022;28;20040;-68
2024/01/13 09:58:19;;;;;;;0.93;0.60;;;;;;;;;;5029593;28;20075;-67
2024/01/13 10:00:44;;;;;;;0.20;0.20;;;;;;;;;;5028688;28;20464;-67
2024/01/13 10:03:09;;;;;;;0.97;0.80;;;;;;;;;;5029643;28;20025;-67
2024/01/13 10:05:35;;;;;;;0.23;0.23;;;;;;;;;;5029886;28;20013;-67
2024/01/13 10:08:00;;;;;;;0.33;0.33;;;;;;;;;;5030346;28;20771;-67
2024/01/13 10:10:26;;;;;;;0.20;0.20;;;;;;;;;;5029632;28;20068;-67
2024/01/13 10:12:52;;;;;;;1.10;0.77;;;;;;;;;;5029097;28;20104;-67
2024/01/13 10:15:17;;;;;;;0.70;0.57;;;;;;;;;;5031102;28;20045;-68
2024/01/13 10:17:42;;;;;;;0.23;0.23;;;;;;;;;;5033323;28;20076;-69
2024/01/13 10:20:13;;;;;;;0.30;0.30;;;;;;;;;;5033295;28;20041;-68
2024/01/13 10:22:38;;;;;;;0.30;0.30;;;;;;;;;;5031066;28;20021;-68
2024/01/13 10:25:04;;;;;;;0.20;0.20;;;;;;;;;;5032187;28;20067;-68
2024/01/13 10:27:29;;;;;;;0.23;0.23;;;;;;;;;;5015435;28;20036;-69
2024/01/13 10:29:55;;;;;;;0.37;0.37;;;;;;;;;;5033253;28;20017;-68
2024/01/13 10:32:21;;;;;;;1.87;1.03;;;;;;;;;;5033396;28;20014;-68
2024/01/13 10:34:47;;;;;;;0.20;0.20;;;;;;;;;;5031577;28;20009;-68
2024/01/13 10:37:13;;;;;;;0.20;0.20;;;;;;;;;;5033137;28;20048;-69
2024/01/13 10:39:39;;;;;;;0.63;0.63;;;;;;;;;;5033212;28;20022;-68
2024/01/13 10:42:07;;;;;;;0.20;0.20;;;;;;;;;;5032906;28;20519;-68
2024/01/13 10:44:39;;;;;;;2.33;0.63;;;;;;;;;;5031899;28;20104;-69
2024/01/13 10:47:07;;;;;;;0.20;0.20;;;;;;;;;;5031446;28;20013;-68
2024/01/13 10:49:35;;;;;;;0.80;0.80;;;;;;;;;;5031529;28;20044;-68
2024/01/13 10:52:01;;;;;;;2.53;1.50;;;;;;;;;;5032567;28;20029;-68
2024/01/13 10:54:29;;;;;;;0.53;0.53;;;;;;;;;;5031896;28;20025;-68
2024/01/13 10:56:55;;;;;;;0.30;0.30;;;;;;;;;;5032166;28;20409;-68
2024/01/13 10:59:21;;;;;;;0.40;0.40;;;;;;;;;;5032309;28;20037;-68
2024/01/13 11:01:47;;;;;;;0.40;0.40;;;;;;;;;;5032256;28;20555;-68
2024/01/13 11:04:12;;;;;;;0.60;0.60;;;;;;;;;;5032606;28;20026;-68
2024/01/13 11:06:38;;;;;;;0.30;0.30;;;;;;;;;;5032579;28;20036;-68
2024/01/13 11:09:05;;;;;;;0.70;0.67;;;;;;;;;;5031743;28;20032;-68
2024/01/13 11:11:32;;;;;;;0.77;0.77;;;;;;;;;;5031141;28;20037;-68
2024/01/13 11:14:09;;;;;;;0.80;0.80;;;;;;;;;;5032243;28;20484;-68
2024/01/13 11:16:36;;;;;;;0.47;0.43;;;;;;;;;;5031449;28;20074;-68
2024/01/13 11:19:02;;;;;;;0.20;0.20;;;;;;;;;;5031043;28;20072;-68
2024/01/13 11:21:29;;;;;;;0.63;0.63;;;;;;;;;;5031969;28;20037;-68
2024/01/13 11:23:54;;;;;;;3.50;0.73;;;;;;;;;;5032018;28;20029;-67
2024/01/13 11:26:22;;;;;;;0.40;0.40;;;;;;;;;;5031103;28;20057;-68
2024/01/13 11:28:51;;;;;;;1.00;0.97;;;;;;;;;;5032204;28;20033;-67
2024/01/13 11:31:32;;;;;;;1.10;0.87;;;;;;;;;;5031577;28;20104;-67
2024/01/13 11:33:59;;;;;;;4.00;3.05;;;;;;;;;;5029638;28;20561;-67
2024/01/13 11:36:26;;;;;;;0.50;0.50;;;;;;;;;;5030109;28;20017;-67
2024/01/13 11:38:52;;;;;;;0.67;0.67;;;;;;;;;;5031148;28;20060;-67
2024/01/13 11:41:17;;;;;;;1.27;1.17;;;;;;;;;;5031155;28;20446;-68
2024/01/13 11:43:44;;;;;;;3.83;1.80;;;;;;;;;;5031832;28;20017;-65
2024/01/13 11:46:14;;;;;;;2.40;2.07;;;;;;;;;;5030238;28;20104;-64
2024/01/13 11:48:40;;;;;;;1.20;1.10;;;;;;;;;;5031397;28;20466;-65
2024/01/13 11:51:11;;;;;;;1.40;0.90;;;;;;;;;;5031781;28;20010;-64
2024/01/13 11:53:40;;;;;;;1.20;1.10;;;;;;;;;;5031413;28;20478;-64
2024/01/13 11:56:06;;;;;;;5.43;3.03;;;;;;;;;;5029750;28;20025;-64
2024/01/13 11:58:33;;;;;;;1.57;1.37;;;;;;;;;;5030434;28;20072;-64
2024/01/13 12:00:59;;;;;;;1.90;1.73;;;;;;;;;;5030293;28;20017;-64
2024/01/13 12:03:24;;;;;;;1.60;1.50;;;;;;;;;;5030789;28;20105;-65
2024/01/13 12:05:50;;;;;;;2.57;1.30;;;;;;;;;;5031455;28;20042;-65
2024/01/13 12:08:15;;;;;;;3.43;2.57;;;;;;;;;;5031563;28;20010;-65
2024/01/13 12:10:43;;;;;;;0.77;0.77;;;;;;;;;;5030607;28;20025;-64
2024/01/13 12:13:18;;;;;;;1.93;1.80;;;;;;;;;;5030614;28;20096;-64
2024/01/13 12:15:47;;;;;;;0.30;0.30;;;;;;;;;;5030183;28;20392;-65
2024/01/13 12:18:26;;;;;;;1.30;1.20;;;;;;;;;;5030526;28;20104;-64
2024/01/13 12:21:03;;;;;;;2.33;1.27;;;;;;;;;;5028725;28;20050;-64
2024/01/13 12:23:28;;;;;;;1.23;1.13;;;;;;;;;;5030581;28;20025;-64
2024/01/13 12:25:53;;;;;;;2.27;1.87;;;;;;;;;;5030634;28;20030;-65
2024/01/13 12:28:19;;;;;;;0.57;0.57;;;;;;;;;;5031094;28;20437;-64
2024/01/13 12:30:45;;;;;;;0.43;0.43;;;;;;;;;;5030601;28;20108;-64
2024/01/13 12:33:11;;;;;;;1.57;1.47;;;;;;;;;;5029211;28;20155;-64
2024/01/13 12:35:36;;;;;;;4.50;1.53;;;;;;;;;;5030216;28;20041;-65
2024/01/13 12:38:04;;;;;;;1.27;1.10;;;;;;;;;;5030808;28;20036;-64
2024/01/13 12:40:30;;;;;;;2.43;1.50;;;;;;;;;;5024714;28;20043;-64
2024/01/13 12:42:55;;;;;;;2.70;2.37;;;;;;;;;;5027486;28;20029;-65
2024/01/13 12:45:22;;;;;;;0.80;0.80;;;;;;;;;;5023848;28;20040;-64
2024/01/13 12:47:51;;;;;;;0.80;0.80;;;;;;;;;;5027417;28;20041;-63
2024/01/13 12:50:16;;;;;;;2.57;2.10;;;;;;;;;;5027652;28;20474;-65
2024/01/13 12:52:41;;;;;;;1.70;1.47;;;;;;;;;;5027196;28;20020;-64
2024/01/13 12:55:07;;;;;;;1.97;1.63;;;;;;;;;;5025967;28;20099;-67
2024/01/13 12:57:33;;;;;;;1.63;1.53;;;;;;;;;;5027857;28;20388;-68
2024/01/13 12:59:58;;;;;;;1.43;1.33;;;;;;;;;;5026799;28;20030;-68
2024/01/13 13:02:24;;;;;;;14.57;2.60;;;;;;;;;;5027524;28;20104;-68
2024/01/13 13:04:49;;;;;;;0.67;0.67;;;;;;;;;;5026362;28;20083;-67
2024/01/13 13:07:16;;;;;;;1.30;1.20;;;;;;;;;;5027272;28;20111;-67
2024/01/13 13:09:41;;;;;;;2.53;1.73;;;;;;;;;;5027416;28;20385;-68
2024/01/13 13:12:07;;;;;;;1.47;1.33;;;;;;;;;;5026938;28;20032;-68
2024/01/13 13:14:32;;;;;;;1.90;1.80;;;;;;;;;;5026562;28;20029;-68
2024/01/13 13:16:58;;;;;;;0.90;0.90;;;;;;;;;;5026738;28;20025;-67
2024/01/13 13:19:25;;;;;;;1.87;1.67;;;;;;;;;;5027321;28;20041;-68
2024/01/13 13:21:50;;;;;;;1.03;0.97;;;;;;;;;;5027376;28;20025;-67
2024/01/13 13:24:15;;;;;;;0.83;0.83;;;;;;;;;;5027117;28;20044;-67
2024/01/13 13:26:41;;;;;;;2.90;1.93;;;;;;;;;;5027125;28;20156;-68
2024/01/13 13:29:06;;;;;;;1.10;0.83;;;;;;;;;;5027507;28;20025;-68
2024/01/13 13:31:32;;;;;;;1.27;0.90;;;;;;;;;;5030994;28;20108;-68
2024/01/13 13:33:57;;;;;;;1.83;1.73;;;;;;;;;;5028597;28;20021;-68
2024/01/13 13:36:22;;;;;;;1.23;1.03;;;;;;;;;;5030242;28;20079;-69
2024/01/13 13:38:47;;;;;;;1.67;1.43;;;;;;;;;;5030166;28;20044;-68
2024/01/13 13:41:13;;;;;;;0.93;0.83;;;;;;;;;;5029608;28;20033;-68
2024/01/13 13:43:38;;;;;;;4.70;1.50;;;;;;;;;;5029398;28;20552;-68
2024/01/13 13:46:04;;;;;;;1.30;1.20;;;;;;;;;;5029970;28;20036;-68
2024/01/13 13:48:33;;;;;;;1.33;1.13;;;;;;;;;;5029817;28;20021;-69
2024/01/13 13:50:59;;;;;;;1.20;1.10;;;;;;;;;;5031637;28;20045;-69
2024/01/13 13:53:25;;;;;;;1.33;1.23;;;;;;;;;;5034471;28;20093;-69
2024/01/13 13:55:50;;;;;;;1.73;0.97;;;;;;;;;;5033763;28;20029;-69
2024/01/13 13:58:15;;;;;;;3.53;0.93;;;;;;;;;;5034061;28;20021;-68
2024/01/13 14:00:40;;;;;;;0.70;0.70;;;;;;;;;;5033329;28;20029;-68
2024/01/13 14:03:06;;;;;;;1.73;1.40;;;;;;;;;;5033649;28;20048;-68
2024/01/13 14:05:31;;;;;;;1.50;1.37;;;;;;;;;;5033946;28;20595;-68
2024/01/13 14:07:56;;;;;;;0.97;0.97;;;;;;;;;;5033688;28;20014;-69
2024/01/13 14:10:21;;;;;;;0.90;0.90;;;;;;;;;;5033739;28;20006;-68
2024/01/13 14:12:46;;;;;;;1.87;1.67;;;;;;;;;;5033624;28;20021;-68
2024/01/13 14:15:12;;;;;;;3.00;1.37;;;;;;;;;;5034090;28;20041;-68
2024/01/13 14:17:37;;;;;;;1.30;1.20;;;;;;;;;;5033841;28;20362;-68
2024/01/13 14:20:03;;;;;;;0.30;0.30;;;;;;;;;;5033073;28;20481;-68
2024/01/13 14:22:28;;;;;;;13.37;3.13;;;;;;;;;;5033665;28;20041;-69
2024/01/13 14:24:55;;;;;;;1.63;1.43;;;;;;;;;;5033106;28;20033;-68
2024/01/13 14:27:20;;;;;;;0.57;0.57;;;;;;;;;;5033635;28;20028;-69
2024/01/13 14:29:45;;;;;;;2.50;1.70;;;;;;;;;;5033607;28;20021;-68
2024/01/13 14:32:11;;;;;;;1.13;1.03;;;;;;;;;;5033458;28;20018;-69
2024/01/13 14:34:36;;;;;;;5.20;2.50;;;;;;;;;;5033494;28;20024;-68